Aérodrome :
LOGIN :

S'inscrire | Disclaimer

   EN    FR    IT 

 










Légende :    VFR   VFR Marginal   IFR   IFR Intensif   IFR Très Intensif
Visi : 
Plafond : 
>= 8 km
>= 3000ft
5 à 8 km
1000 à 3000 ft
1500m à 5 km
500 à 1000 ft
800 à 1500m
200 à 500 ft
< 800m
< 200 ft
Symboles :   Orages  Brouillard  Fortes neiges  Fortes précipitations  Vent > 20 kt
SIGMETs :   Divers  Orages  Givrage  Turbulence  Onde Orograph.  Cendres Volcan.






- Altitude de l'aérodrome : 622 ft
- Code IATA : BRS


EGGD - Bristol Int.

DERNIER METAR :
  • 200620Z AUTO 21006KT 180V260 9999 -RA NCD 11/09 Q1019

METARs EXPIRÉS :
  • 200550Z AUTO 20004KT 180V250 9999 NCD 11/09 Q1019
  • 200520Z AUTO 18003KT 160V260 9999 NCD 11/08 Q1019
  • 200450Z AUTO 17004KT 9999 NCD 11/08 Q1019
  • 200420Z AUTO 18004KT 9999 NCD 11/08 Q1018
  • 200350Z AUTO 20003KT 180V260 9999 FEW022 11/08 Q1018

TAF TAF EGGD
Valide du 20 à 06h jusqu'au 21 à 06h UTC


200502Z 2006/2106 VRB04KT 9999 FEW012 SCT020
BECMG 2006/2009 21010KT
TEMPO 2006/2011 7000 RA BKN008
TEMPO 2011/2018 6000 SHRA BKN010
BECMG 2013/2016 24017G27KT
PROB30
TEMPO 2013/2016 3000 +SHRA BKN008
TEMPO 2018/2021 BKN012
BECMG 2019/2022 26012KT
TEMPO 2021/2106 BKN007
ATIS : +44 1275 473 666



MET'MAP, la Météo Aéronautique d'un coup d'oeil ! - Copyright ORBIFLY Décembre 2007 - Disclaimer

ORBIFLY MET'MAP TEAM :

Programmation & Développement : Alexandra Zaïnal
Sur une idée originale de : Baudouin d'Aumeries
Soutien technique & logistique : Manuel Goepfert
Assistance : Marc-Olivier Méhu

Contact : metmap@orbifly.com




SOURCES & CREDITS :

   NOAA